Ceylon, Indiana
Current Conditions -  °F | °C
As of 11:54 AM on Thursday 23 Oct 2014 (Local Time) from KFWA Reporting Station
Scattered Clouds Scattered Clouds  
Wind Chill: 50°   Ceiling: Unl
Heat Index: 50°   Visibility: 10mi
Dew Point: 41°   Wind: 8mph
Humidity: 71%   Direction: 230°SW
Pressure: 30.26"   Gusts: NA
Location:  40.6087°N, 84.98°W
Report Text: KFWA 231554Z 23007KT 10SM FEW020 SCT250 10/05 A3026 RMK AO2 SLP254 T01000050
Loading
Personal Weather Stations






























Interactive Weather Map
Tropical Storm Tracking
New forecast layout! Learn more

10-Day Weather Forecast

Advertisements
Track Severe Weather on mobile